Pagrindinis puslapis
METAR-TAF:

METAR-TAF

Oro uostai :

Naha, Japonija

platuma: 26-11N, ilguma: 127-39E, Aukštis: 3 m

Dabartinis oras

Ataskaita buvo paskelbta 38 minutes, ne 13:00 UTC
Vėjas 11 kt iš Šiaurės/Šiaurės Rytų
Temperatūra 19°C
Drėgmė 64%
Slėgis 1020 hPa
Matomumas 10 km arba daugiau
Mažai debesys ne aukštis 3000 ft
Išsisklaidę debesys ne aukštis 13000 ft
Su prošvaistėmis ne aukštis 16000 ft

METAR: ROAH 051300Z 02011KT 9999 FEW030 SCT130 BKN160 19/12 Q1020 RMK 2CU030 4AC130 6AC160 A3012

Laikas: 22:38 (13:38 UTC)

Prognozė

Ataskaita buvo paskelbta 2 valandos ir 31 minutes, ne 11:07 UTC
Prognozė galioja nuo 05 metu 12 UTC su 06 metu 18 UTC
Vėjas 7 kt iš Šiaurės/Šiaurės Rytų
Matomumas 10 km arba daugiau
Mažai debesys ne aukštis 2500 ft

TAF: ROAH 051107Z 0512/0618 03007KT 9999 FEW025

Orai ataskaitas ir orų prognozės (METAR, TAF).

turimą stotys yra geltonos ir raudonos taškus žemėlapyje.

Perkelti pele per norėdami pamatyti stoties vardą.

Tada spustelėkite, norėdami matyti oro stebėjimo ir prognozės.

Norėdami pakeisti žemėlapį: spustelėkite ant žalios mygtukų su juodo kryžiaus žemyn,; žalią mygtuką su brūkšneliu, jei norite nutolinti; arba žalių rodyklių gretimoms žemėlapius.


METAR-TAF: